Time;durP1;ratioP1;P1;durP2;ratioP2;P2;SDS_P1;SDS_P2;PMS_P1;PMS_P2;Temp;Humidity;BMP_temperature;BMP_pressure;BME280_temperature;BME280_humidity;BME280_pressure;Samples;Min_cycle;Max_cycle;Signal;HPM_P1;HPM_P2
2023/02/16 00:01:54;;;;;;;101.68;51.25;;;102.80;2227.20;;;;;;5042498;28;20382;-80
2023/02/16 00:04:21;;;;;;;;;;;102.60;2227.20;;;;;;5046540;28;20107;-78
2023/02/16 00:06:48;;;;;;;90.45;43.40;;;102.70;2227.20;;;;;;5046534;28;20269;-79
2023/02/16 00:09:14;;;;;;;114.20;50.95;;;102.80;2227.20;;;;;;5046235;28;20064;-80
2023/02/16 00:14:27;;;;;;;100.65;48.65;;;102.70;2227.20;;;;;;5073657;28;20289;-79
2023/02/16 00:16:55;;;;;;;108.95;53.45;;;102.90;2227.20;;;;;;5047119;28;20031;-79
2023/02/16 00:19:25;;;;;;;98.97;49.10;;;103.00;2227.20;;;;;;5049702;28;20029;-78
2023/02/16 00:21:57;;;;;;;107.20;54.35;;;102.90;2227.20;;;;;;5042434;28;20016;-78
2023/02/16 00:24:25;;;;;;;96.25;48.42;;;102.80;2227.20;;;;;;5056502;28;20034;-79
2023/02/16 00:26:51;;;;;;;108.50;54.72;;;102.70;2227.20;;;;;;5036650;28;20136;-78
2023/02/16 00:29:30;;;;;;;;;;;102.80;2227.20;;;;;;5047476;28;20491;-79
2023/02/16 00:31:58;;;;;;;91.38;45.92;;;102.70;2227.20;;;;;;5049616;28;20061;-79
2023/02/16 00:34:34;;;;;;;98.70;46.92;;;102.60;2227.20;;;;;;5043947;28;20127;-79
2023/02/16 00:37:11;;;;;;;85.25;41.05;;;102.60;2227.20;;;;;;5043872;28;20402;-79
2023/02/16 00:39:41;;;;;;;112.25;51.75;;;102.60;2227.20;;;;;;5041707;28;20031;-77
2023/02/16 00:42:19;;;;;;;114.10;50.97;;;102.60;2227.20;;;;;;5027519;28;20045;-80
2023/02/16 00:44:48;;;;;;;114.97;49.60;;;102.70;2227.20;;;;;;5044287;28;20082;-82
2023/02/16 00:47:29;;;;;;;101.28;49.78;;;102.60;2227.20;;;;;;5050523;28;20058;-80
2023/02/16 00:49:54;;;;;;;90.93;44.35;;;102.60;2227.20;;;;;;5040582;28;20041;-80
2023/02/16 00:52:30;;;;;;;;;;;102.60;2227.20;;;;;;5035038;28;20028;-82
2023/02/16 00:54:57;;;;;;;91.45;43.97;;;102.50;2227.20;;;;;;5048909;28;20013;-82
2023/02/16 00:57:24;;;;;;;95.57;45.72;;;102.40;2227.20;;;;;;5060356;28;20029;-82
2023/02/16 01:00:15;;;;;;;97.68;44.28;;;77.70;2227.20;;;;;;5036071;28;20041;-82
2023/02/16 01:02:43;;;;;;;98.78;46.22;;;77.70;2227.20;;;;;;5037649;28;20052;-83
2023/02/16 01:05:09;;;;;;;88.10;45.30;;;77.70;2227.20;;;;;;5050725;28;20530;-82
2023/02/16 01:13:04;;;;;;;112.35;49.40;;;77.60;2227.20;;;;;;5062587;28;20492;-79
2023/02/16 01:15:30;;;;;;;108.85;49.95;;;77.70;2227.20;;;;;;5042175;28;20032;-78
2023/02/16 01:17:56;;;;;;;;;;;77.70;2227.20;;;;;;5046114;28;20165;-78
2023/02/16 01:20:24;;;;;;;98.15;43.30;;;77.50;2227.20;;;;;;5048464;28;20362;-79
2023/02/16 01:22:50;;;;;;;94.68;44.97;;;77.40;2227.20;;;;;;5056456;28;20032;-80
2023/02/16 01:25:16;;;;;;;;;;;77.40;2227.20;;;;;;5051009;28;20112;-78
2023/02/16 01:27:42;;;;;;;94.38;46.50;;;77.40;2227.20;;;;;;5049982;28;19904;-79
2023/02/16 01:30:20;;;;;;;98.57;46.40;;;77.40;2227.20;;;;;;5043714;28;20039;-78
2023/02/16 01:32:50;;;;;;;97.55;47.45;;;77.40;2227.20;;;;;;5060187;28;20043;-79
2023/02/16 01:35:19;;;;;;;90.78;45.55;;;77.40;2227.20;;;;;;5059748;28;20020;-78
2023/02/16 01:37:45;;;;;;;101.35;47.40;;;77.50;2227.20;;;;;;5055000;28;20051;-78
2023/02/16 01:40:29;;;;;;;;;;;77.60;2227.20;;;;;;5048367;28;20052;-78
2023/02/16 01:43:17;;;;;;;100.13;48.88;;;77.50;2227.20;;;;;;5050993;28;19913;-78
2023/02/16 01:45:48;;;;;;;102.32;47.88;;;77.50;2227.20;;;;;;5046688;28;20051;-79
2023/02/16 01:48:24;;;;;;;109.10;52.50;;;77.50;2227.20;;;;;;5050089;28;20028;-78
2023/02/16 01:51:16;;;;;;;95.70;47.92;;;77.60;2227.20;;;;;;5041355;28;20023;-79
2023/02/16 01:53:46;;;;;;;99.57;48.03;;;77.60;2227.20;;;;;;5047058;28;20047;-78
2023/02/16 01:56:34;;;;;;;95.03;46.05;;;77.70;2227.20;;;;;;5041160;28;20505;-79
2023/02/16 01:59:39;;;;;;;113.85;51.42;;;102.40;2227.20;;;;;;5037610;28;20025;-78
2023/02/16 02:02:12;;;;;;;116.63;55.03;;;102.50;2227.20;;;;;;5038352;28;20072;-79
2023/02/16 02:07:54;;;;;;;112.78;56.55;;;102.50;2227.20;;;;;;5057082;28;20063;-79
2023/02/16 02:10:45;;;;;;;129.50;63.55;;;102.50;2227.20;;;;;;5055660;28;20041;-79
2023/02/16 02:13:20;;;;;;;136.13;65.32;;;102.50;2227.20;;;;;;5055369;28;20586;-79
2023/02/16 02:15:47;;;;;;;132.53;61.47;;;102.50;2227.20;;;;;;5055707;28;20029;-79
2023/02/16 02:18:13;;;;;;;128.82;62.92;;;102.50;2227.20;;;;;;5057206;28;20108;-79
2023/02/16 02:24:03;;;;;;;118.50;58.70;;;102.50;2227.20;;;;;;5056780;28;20485;-79
2023/02/16 02:26:59;;;;;;;122.65;57.80;;;102.40;2227.20;;;;;;5055436;28;20067;-79
2023/02/16 02:29:46;;;;;;;111.15;53.33;;;102.40;2227.20;;;;;;5056671;28;20539;-80
2023/02/16 02:32:48;;;;;;;126.45;58.45;;;102.40;2227.20;;;;;;5029806;28;20025;-81
2023/02/16 02:35:23;;;;;;;105.70;51.70;;;102.40;2227.20;;;;;;5045165;28;20036;-81
2023/02/16 02:38:10;;;;;;;124.72;56.22;;;77.70;2227.20;;;;;;5056190;28;20025;-82
2023/02/16 02:40:58;;;;;;;86.43;43.03;;;77.70;2227.20;;;;;;5055614;28;20049;-81
2023/02/16 02:43:27;;;;;;;112.13;52.60;;;102.40;2227.20;;;;;;5047873;28;20032;-81
2023/02/16 02:46:15;;;;;;;112.88;54.60;;;77.70;2227.20;;;;;;5056843;28;20027;-80
2023/02/16 02:48:41;;;;;;;104.28;50.88;;;77.60;2227.20;;;;;;5055687;28;20076;-81
2023/02/16 02:51:27;;;;;;;;;;;77.50;2227.20;;;;;;5055641;28;20029;-79
2023/02/16 03:00:40;;;;;;;104.18;49.38;;;77.40;2227.20;;;;;;4975896;28;20428;-81
2023/02/16 03:03:24;;;;;;;107.72;49.25;;;77.50;2227.20;;;;;;4988399;28;20546;-81
2023/02/16 03:06:12;;;;;;;98.70;48.60;;;77.40;2227.20;;;;;;4967743;28;20535;-81
2023/02/16 03:08:42;;;;;;;106.30;49.58;;;77.30;2227.20;;;;;;4965288;28;20030;-81
2023/02/16 03:14:12;;;;;;;;;;;77.40;2227.20;;;;;;4986172;28;20114;-81
2023/02/16 03:16:41;;;;;;;99.68;47.45;;;77.30;2227.20;;;;;;4962888;28;20442;-79
2023/02/16 03:30:17;;;;;;;97.10;48.00;;;77.30;2227.20;;;;;;4982487;28;20098;-79
2023/02/16 03:32:43;;;;;;;97.55;46.45;;;77.20;2227.20;;;;;;5054408;28;20036;-78
2023/02/16 03:35:11;;;;;;;110.85;48.28;;;77.20;2227.20;;;;;;5053658;28;20489;-79
2023/02/16 03:37:39;;;;;;;101.13;48.95;;;77.30;2227.20;;;;;;5041259;28;20383;-79
2023/02/16 03:42:52;;;;;;;105.15;47.25;;;77.00;2227.20;;;;;;5055917;28;20032;-79
2023/02/16 03:45:19;;;;;;;;;;;77.00;2227.20;;;;;;5054510;28;20171;-78
2023/02/16 03:47:44;;;;;;;103.75;46.92;;;77.00;2227.20;;;;;;5054112;28;19905;-79
2023/02/16 03:50:10;;;;;;;;;;;76.90;2227.20;;;;;;5053690;28;20490;-77
2023/02/16 03:52:36;;;;;;;93.45;43.45;;;76.90;2227.20;;;;;;5053884;28;19909;-78
2023/02/16 03:55:01;;;;;;;;;;;76.80;2227.20;;;;;;5044189;28;20021;-78
2023/02/16 03:57:27;;;;;;;105.32;46.67;;;76.80;2227.20;;;;;;5053272;28;19948;-78
2023/02/16 03:59:53;;;;;;;;;;;52.00;2227.20;;;;;;5040481;28;20036;-79
2023/02/16 04:02:19;;;;;;;100.70;48.00;;;51.90;2227.20;;;;;;5053788;28;19904;-79
2023/02/16 04:04:45;;;;;;;;;;;51.80;2227.20;;;;;;5055240;28;20108;-80
2023/02/16 04:07:10;;;;;;;120.03;49.17;;;51.80;2227.20;;;;;;5053734;28;19947;-79
2023/02/16 04:09:36;;;;;;;;;;;51.70;2227.20;;;;;;5054203;28;20083;-80
2023/02/16 04:14:45;;;;;;;90.95;43.70;;;51.50;2227.20;;;;;;5055314;28;20485;-79
2023/02/16 04:17:11;;;;;;;;;;;51.40;2227.20;;;;;;5055266;28;20029;-80
2023/02/16 04:19:37;;;;;;;91.07;42.67;;;51.50;2227.20;;;;;;5054557;28;20269;-80
2023/02/16 04:22:02;;;;;;;;;;;51.50;2227.20;;;;;;5053236;28;20503;-77
2023/02/16 04:24:28;;;;;;;90.05;42.05;;;51.40;2227.20;;;;;;5052993;28;19905;-77
2023/02/16 04:26:53;;;;;;;;;;;51.40;2227.20;;;;;;5052415;28;20043;-76
2023/02/16 04:29:19;;;;;;;103.22;41.78;;;51.40;2227.20;;;;;;5053942;28;20281;-77
2023/02/16 04:31:45;;;;;;;;;;;51.40;2227.20;;;;;;5053408;28;20017;-77
2023/02/16 04:34:10;;;;;;;88.93;41.30;;;51.40;2227.20;;;;;;5039042;28;20350;-76
2023/02/16 04:36:36;;;;;;;;;;;51.20;2227.20;;;;;;5044578;28;20029;-77
2023/02/16 04:39:02;;;;;;;87.47;40.22;;;51.20;2227.20;;;;;;5038194;28;20267;-78
2023/02/16 04:41:28;;;;;;;82.07;38.95;;;51.50;2227.20;;;;;;5041024;28;20072;-78
2023/02/16 04:43:53;;;;;;;;;;;51.30;2227.20;;;;;;5041015;28;20025;-78
2023/02/16 04:46:19;;;;;;;81.55;40.13;;;51.30;2227.20;;;;;;5052303;28;19905;-78
2023/02/16 04:48:45;;;;;;;;;;;51.20;2227.20;;;;;;5054245;28;20029;-77
2023/02/16 04:51:10;;;;;;;89.18;39.13;;;51.40;2227.20;;;;;;5052892;28;19974;-78
2023/02/16 04:53:36;;;;;;;;;;;51.20;2227.20;;;;;;5053613;28;20075;-79
2023/02/16 04:56:02;;;;;;;81.65;37.30;;;51.30;2227.20;;;;;;5028273;28;20408;-77
2023/02/16 04:58:27;;;;;;;;;;;51.30;2227.20;;;;;;5044176;28;20021;-79
2023/02/16 05:00:53;;;;;;;81.97;36.88;;;51.30;2227.20;;;;;;5052639;28;20385;-78
2023/02/16 05:03:18;;;;;;;;;;;51.30;2227.20;;;;;;5053066;28;20057;-77
2023/02/16 05:05:44;;;;;;;84.65;35.50;;;51.30;2227.20;;;;;;5046921;28;19915;-78
2023/02/16 05:08:09;;;;;;;;;;;26.40;2201.60;;;;;;5054265;28;20025;-78
2023/02/16 05:10:35;;;;;;;80.63;34.90;;;26.20;2201.60;;;;;;5053775;28;19909;-78
2023/02/16 05:15:45;;;;;;;86.97;36.50;;;26.10;2201.60;;;;;;5053831;28;19912;-78
2023/02/16 05:18:10;;;;;;;;;;;26.00;2201.60;;;;;;5051475;28;20033;-78
2023/02/16 05:23:20;;;;;;;93.55;38.75;;;26.10;2201.60;;;;;;5041278;28;20032;-78
2023/02/16 05:25:46;;;;;;;;;;;26.10;2201.60;;;;;;5052332;28;20025;-79
2023/02/16 05:28:11;;;;;;;83.13;36.80;;;26.00;2201.60;;;;;;5052577;28;19911;-79
2023/02/16 05:30:37;;;;;;;;;;;26.00;2201.60;;;;;;5052367;28;20106;-78
2023/02/16 05:33:03;;;;;;;85.05;37.15;;;26.00;2201.60;;;;;;5051571;28;19920;-80
2023/02/16 05:35:28;;;;;;;;;;;25.90;2201.60;;;;;;5039814;28;20474;-76
2023/02/16 05:37:54;;;;;;;72.50;32.78;;;25.80;2201.60;;;;;;5039945;28;20377;-76
2023/02/16 05:40:19;;;;;;;;;;;25.60;2201.60;;;;;;5043150;28;20486;-77
2023/02/16 05:42:45;;;;;;;79.63;32.35;;;25.60;2201.60;;;;;;5052024;28;20359;-78
2023/02/16 05:45:10;;;;;;;;;;;0.90;2201.60;;;;;;5053603;28;20025;-77
2023/02/16 05:47:36;;;;;;;83.60;33.08;;;0.80;2201.60;;;;;;5051705;28;20411;-77
2023/02/16 05:50:02;;;;;;;;;;;0.70;2201.60;;;;;;5052599;28;20390;-79
2023/02/16 05:52:27;;;;;;;70.05;30.65;;;0.70;2201.60;;;;;;5052364;28;19950;-81
2023/02/16 05:54:53;;;;;;;;;;;0.70;2201.60;;;;;;5053166;28;20070;-80
2023/02/16 05:57:19;;;;;;;75.07;30.77;;;0.60;2201.60;;;;;;5049638;28;19912;-80
2023/02/16 05:59:44;;;;;;;;;;;0.60;2201.60;;;;;;5045594;28;20466;-77
2023/02/16 06:02:10;;;;;;;76.45;30.08;;;0.50;2201.60;;;;;;5051398;28;19909;-76
2023/02/16 06:04:35;;;;;;;;;;;0.60;2201.60;;;;;;5042947;28;20471;-79
2023/02/16 06:07:01;;;;;;;74.90;30.58;;;0.60;2201.60;;;;;;5051236;28;19995;-79
2023/02/16 06:09:27;;;;;;;;;;;0.70;2201.60;;;;;;5043007;28;20494;-77
2023/02/16 06:11:52;;;;;;;74.93;32.25;;;0.90;2201.60;;;;;;5050946;28;19916;-78
2023/02/16 06:14:19;;;;;;;;;;;0.90;2201.60;;;;;;5052395;28;20032;-81
2023/02/16 06:16:47;;;;;;;62.17;25.92;;;25.60;2201.60;;;;;;5053488;28;19934;-80
2023/02/16 06:19:16;;;;;;;74.03;34.92;;;25.80;2201.60;;;;;;5042857;28;20048;-81
2023/02/16 06:21:42;;;;;;;79.35;31.67;;;25.80;2201.60;;;;;;5052111;28;20067;-81
2023/02/16 06:24:09;;;;;;;78.82;36.00;;;25.90;2201.60;;;;;;5052334;28;20036;-80
2023/02/16 06:26:35;;;;;;;81.75;34.90;;;26.00;2201.60;;;;;;5026159;28;20021;-78
2023/02/16 06:29:01;;;;;;;78.40;35.83;;;26.30;2201.60;;;;;;5045798;28;20111;-77
2023/02/16 06:31:27;;;;;;;;;;;26.50;2201.60;;;;;;5053491;28;20028;-79
2023/02/16 06:33:55;;;;;;;76.25;35.10;;;51.20;2227.20;;;;;;5053005;28;19904;-79
2023/02/16 06:36:21;;;;;;;84.28;36.55;;;51.50;2227.20;;;;;;5026068;28;20037;-80
2023/02/16 06:38:47;;;;;;;85.45;38.38;;;51.60;2227.20;;;;;;5052046;28;20429;-79
2023/02/16 06:41:29;;;;;;;;;;;51.80;2227.20;;;;;;5052233;28;20045;-78
2023/02/16 06:43:59;;;;;;;86.40;39.33;;;51.70;2227.20;;;;;;5051693;28;19931;-78
2023/02/16 06:46:25;;;;;;;85.43;41.17;;;51.70;2227.20;;;;;;5054023;28;20025;-77
2023/02/16 06:48:51;;;;;;;88.30;42.67;;;51.70;2227.20;;;;;;5055048;28;20029;-78
2023/02/16 06:51:17;;;;;;;;;;;51.80;2227.20;;;;;;5029184;28;20112;-76
2023/02/16 06:53:43;;;;;;;85.80;39.13;;;52.00;2227.20;;;;;;5048532;28;19905;-78
2023/02/16 06:56:08;;;;;;;;;;;76.80;2227.20;;;;;;5045474;28;20025;-78
2023/02/16 06:58:34;;;;;;;81.68;39.05;;;76.90;2227.20;;;;;;5056116;28;19912;-78
2023/02/16 07:01:00;;;;;;;;;;;77.00;2227.20;;;;;;5055625;28;20367;-78
2023/02/16 07:03:25;;;;;;;84.85;38.15;;;77.20;2227.20;;;;;;5043630;28;19908;-76
2023/02/16 07:05:51;;;;;;;;;;;77.20;2227.20;;;;;;5045716;28;20128;-77
2023/02/16 07:08:17;;;;;;;87.38;41.53;;;77.40;2227.20;;;;;;5038702;28;20346;-77
2023/02/16 07:10:43;;;;;;;;;;;77.50;2227.20;;;;;;5042220;28;20037;-77
2023/02/16 07:13:09;;;;;;;89.93;39.37;;;77.60;2227.20;;;;;;5048103;28;19924;-76
2023/02/16 07:15:35;;;;;;;;;;;77.70;2227.20;;;;;;5053950;28;20017;-75
2023/02/16 07:18:00;;;;;;;80.07;37.90;;;102.50;2227.20;;;;;;5047978;28;20392;-76
2023/02/16 07:20:26;;;;;;;;;;;102.60;2227.20;;;;;;5049393;28;20033;-80
2023/02/16 07:22:53;;;;;;;85.15;38.13;;;102.70;2227.20;;;;;;5053440;28;19908;-76
2023/02/16 07:25:18;;;;;;;78.13;38.97;;;102.80;2227.20;;;;;;5069016;28;20023;-77
2023/02/16 07:27:44;;;;;;;;;;;102.80;2227.20;;;;;;5058265;28;20406;-75
2023/02/16 07:30:11;;;;;;;77.13;36.35;;;102.90;2227.20;;;;;;5058994;28;19912;-74
2023/02/16 07:32:36;;;;;;;68.32;35.95;;;103.00;2227.20;;;;;;5041856;28;20028;-74
2023/02/16 07:35:02;;;;;;;;;;;103.10;2227.20;;;;;;5071341;28;20432;-74
2023/02/16 07:37:29;;;;;;;69.32;36.80;;;103.10;2227.20;;;;;;5083302;28;20354;-76
2023/02/16 07:39:55;;;;;;;75.88;37.05;;;103.30;2227.20;;;;;;5050161;28;20830;-76
2023/02/16 07:42:21;;;;;;;;;;;128.00;2252.80;;;;;;5047195;28;20048;-78
2023/02/16 07:44:47;;;;;;;73.78;37.38;;;128.20;2252.80;;;;;;5046697;28;19912;-78
2023/02/16 07:47:13;;;;;;;;;;;128.30;2252.80;;;;;;5050951;28;20036;-79
2023/02/16 07:49:39;;;;;;;58.70;30.65;;;128.40;2252.80;;;;;;5043527;28;19916;-76
2023/02/16 07:52:05;;;;;;;81.78;37.72;;;128.40;2252.80;;;;;;5050807;28;20082;-73
2023/02/16 07:54:32;;;;;;;81.60;40.17;;;128.60;2252.80;;;;;;5068631;28;20125;-73
2023/02/16 07:56:57;;;;;;;79.68;38.72;;;128.70;2252.80;;;;;;5067494;28;20100;-73
2023/02/16 07:59:23;;;;;;;;;;;128.80;2252.80;;;;;;5046946;28;20113;-74
2023/02/16 08:01:49;;;;;;;82.80;41.45;;;153.60;2252.80;;;;;;5060813;28;20354;-75
2023/02/16 08:04:14;;;;;;;;;;;153.70;2252.80;;;;;;5067036;28;20074;-74
2023/02/16 08:06:40;;;;;;;67.65;34.20;;;153.80;2252.80;;;;;;5048953;28;19911;-74
2023/02/16 08:09:06;;;;;;;;;;;153.80;2252.80;;;;;;5067335;28;20043;-73
2023/02/16 08:11:31;;;;;;;85.18;38.45;;;153.80;2252.80;;;;;;5066525;28;19908;-76
2023/02/16 08:13:58;;;;;;;;;;;154.00;2252.80;;;;;;5068951;28;20060;-76
2023/02/16 08:16:26;;;;;;;72.40;38.85;;;154.00;2252.80;;;;;;5067764;28;19918;-75
2023/02/16 08:18:55;;;;;;;85.20;42.95;;;154.10;2252.80;;;;;;5047099;28;20563;-78
2023/02/16 08:21:22;;;;;;;77.75;39.90;;;154.40;2252.80;;;;;;5047021;28;20029;-77
2023/02/16 08:23:53;;;;;;;79.88;41.15;;;154.40;2252.80;;;;;;5044158;28;20049;-79
2023/02/16 08:26:21;;;;;;;83.75;42.00;;;154.40;2252.80;;;;;;5046093;28;20394;-77
2023/02/16 08:28:48;;;;;;;84.75;39.88;;;154.40;2252.80;;;;;;5042994;28;20082;-77
2023/02/16 08:31:23;;;;;;;76.75;39.83;;;154.50;2252.80;;;;;;5045723;28;20123;-75
2023/02/16 08:33:51;;;;;;;72.32;38.58;;;179.20;2252.80;;;;;;5059335;28;20108;-80
2023/02/16 08:36:33;;;;;;;74.75;39.22;;;179.40;2252.80;;;;;;5049067;28;20029;-74
2023/02/16 08:39:04;;;;;;;73.70;40.75;;;179.40;2252.80;;;;;;5026447;28;20548;-85
2023/02/16 08:41:33;;;;;;;66.57;38.60;;;179.30;2252.80;;;;;;5036261;28;20179;-86
2023/02/16 08:43:59;;;;;;;72.97;38.88;;;179.40;2252.80;;;;;;5035174;28;20120;-80
2023/02/16 08:46:29;;;;;;;70.05;37.70;;;179.50;2252.80;;;;;;5031606;28;20071;-79
2023/02/16 08:48:58;;;;;;;72.22;37.90;;;179.40;2252.80;;;;;;5039713;28;20110;-75
2023/02/16 08:51:24;;;;;;;72.25;39.30;;;179.50;2252.80;;;;;;5050159;28;20025;-76
2023/02/16 08:53:51;;;;;;;;;;;179.50;2252.80;;;;;;5047718;28;20033;-75
2023/02/16 08:56:17;;;;;;;59.67;28.25;;;179.50;2252.80;;;;;;5045535;28;20346;-78
2023/02/16 08:58:42;;;;;;;;;;;179.50;2252.80;;;;;;5070592;28;20107;-77
2023/02/16 09:01:10;;;;;;;66.13;33.60;;;179.50;2252.80;;;;;;5050597;28;19974;-77
2023/02/16 09:03:41;;;;;;;67.45;35.38;;;179.70;2252.80;;;;;;5038334;28;20028;-75
2023/02/16 09:06:09;;;;;;;62.67;33.25;;;179.80;2252.80;;;;;;5046323;28;20040;-76
2023/02/16 09:08:37;;;;;;;70.53;37.38;;;179.90;2252.80;;;;;;5063503;28;20045;-74
2023/02/16 09:11:05;;;;;;;70.15;36.25;;;180.00;2252.80;;;;;;5059124;28;20033;-74
2023/02/16 09:13:36;;;;;;;65.82;36.05;;;180.10;2252.80;;;;;;5061566;28;20036;-73
2023/02/16 09:16:08;;;;;;;63.65;33.47;;;204.90;2252.80;;;;;;5059664;28;20367;-74
2023/02/16 09:18:35;;;;;;;60.25;31.88;;;205.00;2252.80;;;;;;5064608;28;20025;-74
2023/02/16 09:21:10;;;;;;;61.25;33.38;;;205.00;2252.80;;;;;;5064597;28;20036;-73
2023/02/16 09:23:39;;;;;;;65.57;32.30;;;205.00;2252.80;;;;;;5046715;28;20119;-74
2023/02/16 09:26:06;;;;;;;76.00;33.75;;;205.20;2252.80;;;;;;5039023;28;20036;-74
2023/02/16 09:28:39;;;;;;;61.70;33.83;;;205.30;2252.80;;;;;;5042863;28;20094;-75
2023/02/16 09:31:27;;;;;;;60.75;32.33;;;205.50;2252.80;;;;;;5045668;28;20048;-76
2023/02/16 09:34:01;;;;;;;62.08;34.55;;;205.70;2252.80;;;;;;5058288;28;20024;-74
2023/02/16 09:36:27;;;;;;;77.10;37.20;;;230.50;2252.80;;;;;;5060266;28;20036;-76
2023/02/16 09:38:55;;;;;;;64.00;32.58;;;230.60;2252.80;;;;;;5064885;28;20470;-74
2023/02/16 09:41:34;;;;;;;62.60;30.50;;;230.70;2252.80;;;;;;5058736;28;20526;-75
2023/02/16 09:44:00;;;;;;;57.38;32.17;;;230.70;2252.80;;;;;;5058295;28;20028;-76
2023/02/16 09:46:28;;;;;;;63.75;32.75;;;230.80;2252.80;;;;;;5044387;28;20017;-74
2023/02/16 09:48:54;;;;;;;57.10;31.65;;;230.90;2252.80;;;;;;5058934;28;20025;-75
2023/02/16 09:51:24;;;;;;;65.00;33.10;;;231.10;2252.80;;;;;;5062831;28;20029;-75
2023/02/16 09:54:20;;;;;;;58.08;32.28;;;231.10;2252.80;;;;;;5047785;28;20039;-76
2023/02/16 09:56:55;;;;;;;65.03;32.72;;;231.30;2252.80;;;;;;5039334;28;20032;-73
2023/02/16 09:59:52;;;;;;;60.07;32.47;;;256.50;2252.80;;;;;;5064993;28;20122;-75
2023/02/16 10:02:23;;;;;;;64.22;32.63;;;256.20;2252.80;;;;;;5063238;28;20359;-74
2023/02/16 10:04:57;;;;;;;58.30;32.38;;;256.40;2252.80;;;;;;5043795;28;20025;-74
2023/02/16 10:07:39;;;;;;;58.67;32.10;;;256.60;2252.80;;;;;;5061987;28;20017;-74
2023/02/16 10:10:07;;;;;;;51.22;31.27;;;256.60;2252.80;;;;;;5049681;28;20486;-79
2023/02/16 10:12:39;;;;;;;58.83;33.10;;;256.80;2252.80;;;;;;5058858;28;20028;-76
2023/02/16 10:15:26;;;;;;;63.60;32.05;;;281.70;2278.40;;;;;;5068403;28;20024;-75
2023/02/16 10:17:56;;;;;;;59.17;32.17;;;281.80;2278.40;;;;;;5047487;28;20111;-74
2023/02/16 10:20:33;;;;;;;52.00;31.50;;;282.20;2278.40;;;;;;5064119;28;20021;-77
2023/02/16 10:23:20;;;;;;;54.13;33.58;;;282.40;2278.40;;;;;;5048975;28;20155;-76
2023/02/16 10:26:04;;;;;;;54.58;30.85;;;307.40;2304.00;;;;;;5049749;28;20052;-75
2023/02/16 10:28:39;;;;;;;53.88;31.02;;;307.30;2278.40;;;;;;5030333;28;20480;-75
2023/02/16 10:31:26;;;;;;;60.58;33.00;;;307.60;2252.80;;;;;;5045778;28;20120;-75
2023/02/16 10:34:14;;;;;;;52.78;30.00;;;307.80;2176.00;;;;;;5034349;28;20485;-75
2023/02/16 10:36:45;;;;;;;50.33;30.63;;;308.10;2124.80;;;;;;5038563;28;20039;-75
2023/02/16 10:39:45;;;;;;;55.50;32.35;;;308.00;2099.20;;;;;;5062346;28;20021;-76
2023/02/16 10:42:19;;;;;;;58.42;33.17;;;308.10;2099.20;;;;;;5066571;28;20049;-75
2023/02/16 10:44:57;;;;;;;51.13;30.80;;;333.10;2099.20;;;;;;5061153;28;20027;-76
2023/02/16 10:47:36;;;;;;;53.35;32.35;;;333.10;2022.40;;;;;;5042755;28;20075;-75
2023/02/16 10:50:03;;;;;;;57.30;33.50;;;333.40;1996.80;;;;;;5043739;28;20033;-75
2023/02/16 10:52:35;;;;;;;52.00;32.05;;;333.40;1996.80;;;;;;5031002;28;20033;-75
2023/02/16 10:55:01;;;;;;;54.05;29.23;;;333.60;1945.60;;;;;;5041035;28;20025;-75
2023/02/16 10:57:31;;;;;;;49.33;31.27;;;358.50;1920.00;;;;;;5034499;28;20063;-76
2023/02/16 11:00:00;;;;;;;52.20;31.85;;;358.50;1894.40;;;;;;5038062;28;20025;-77
2023/02/16 11:02:27;;;;;;;59.67;31.80;;;358.40;1894.40;;;;;;5043701;28;20067;-78
2023/02/16 11:04:57;;;;;;;54.22;33.40;;;358.70;1894.40;;;;;;5052300;28;20029;-76
2023/02/16 11:07:26;;;;;;;58.53;33.90;;;358.70;1868.80;;;;;;5050204;28;20064;-76
2023/02/16 11:09:54;;;;;;;54.40;33.85;;;359.10;1792.00;;;;;;5029129;28;20033;-76
2023/02/16 11:12:26;;;;;;;57.17;32.78;;;384.00;1740.80;;;;;;5048230;28;20056;-75
2023/02/16 11:15:06;;;;;;;45.78;29.30;;;359.20;1766.40;;;;;;5043627;28;20028;-82
2023/02/16 11:18:03;;;;;;;49.25;30.70;;;359.20;1766.40;;;;;;5035202;28;20057;-77
2023/02/16 11:20:33;;;;;;;49.40;30.90;;;384.10;1715.20;;;;;;5041052;28;20025;-78
2023/02/16 11:23:13;;;;;;;48.40;30.00;;;384.00;1766.40;;;;;;5039705;28;20080;-80
2023/02/16 11:25:39;;;;;;;52.28;31.27;;;384.50;1689.60;;;;;;5048242;28;20020;-76
2023/02/16 11:28:05;;;;;;;44.22;29.15;;;384.30;1715.20;;;;;;5042952;28;20108;-76
2023/02/16 11:30:35;;;;;;;48.97;31.30;;;384.10;1715.20;;;;;;5053584;28;20033;-78
2023/02/16 11:33:28;;;;;;;52.63;32.53;;;384.20;1715.20;;;;;;5025508;28;20076;-77
2023/02/16 11:35:55;;;;;;;55.53;31.20;;;384.60;1715.20;;;;;;5060699;28;20485;-74
2023/02/16 11:38:27;;;;;;;47.92;31.58;;;384.70;1715.20;;;;;;5059947;28;20026;-80
2023/02/16 11:40:53;;;;;;;51.42;31.35;;;384.70;1689.60;;;;;;5034192;28;20059;-81
2023/02/16 11:43:19;;;;;;;49.35;30.40;;;409.60;1715.20;;;;;;5042641;28;20144;-81
2023/02/16 11:46:01;;;;;;;48.38;31.52;;;384.70;1689.60;;;;;;5047204;28;20359;-77
2023/02/16 11:48:31;;;;;;;50.83;30.85;;;384.70;1664.00;;;;;;5044127;28;20021;-78
2023/02/16 11:51:04;;;;;;;48.83;30.90;;;384.90;1638.40;;;;;;5042808;28;20068;-76
2023/02/16 11:53:36;;;;;;;50.92;31.17;;;384.70;1664.00;;;;;;5045286;28;20028;-78
2023/02/16 11:56:16;;;;;;;48.60;31.30;;;384.60;1664.00;;;;;;5060934;28;20509;-78
2023/02/16 11:58:41;;;;;;;49.95;32.78;;;384.70;1689.60;;;;;;5053364;28;20037;-78
2023/02/16 12:01:20;;;;;;;49.33;30.83;;;384.80;1689.60;;;;;;5047161;28;20089;-80
2023/02/16 12:04:05;;;;;;;54.20;31.20;;;409.70;1664.00;;;;;;5069628;28;20390;-80
2023/02/16 12:06:53;;;;;;;47.53;30.10;;;409.70;1689.60;;;;;;5060641;28;20082;-77
2023/02/16 12:09:39;;;;;;;53.53;31.88;;;409.90;1638.40;;;;;;5019993;28;20066;-78
2023/02/16 12:12:40;;;;;;;47.67;31.90;;;409.80;1664.00;;;;;;5036227;28;20410;-77
2023/02/16 12:15:23;;;;;;;54.20;32.58;;;410.20;1638.40;;;;;;4973619;28;20261;-79
2023/02/16 12:18:13;;;;;;;54.05;33.75;;;410.20;1638.40;;;;;;4956749;28;20035;-78
2023/02/16 12:21:06;;;;;;;60.42;33.30;;;409.90;1638.40;;;;;;4972297;28;21150;-78
2023/02/16 12:23:40;;;;;;;48.28;31.65;;;410.00;1638.40;;;;;;4959150;28;20035;-77
2023/02/16 12:26:37;;;;;;;53.72;33.40;;;410.10;1638.40;;;;;;4972854;28;20039;-78
2023/02/16 12:29:23;;;;;;;58.00;34.45;;;410.00;1689.60;;;;;;4959938;28;20098;-79
2023/02/16 12:31:57;;;;;;;49.67;32.10;;;410.10;1664.00;;;;;;4973493;28;20431;-78
2023/02/16 12:34:51;;;;;;;55.70;33.42;;;409.80;1664.00;;;;;;4956616;28;20304;-74
2023/02/16 12:37:34;;;;;;;49.55;31.58;;;409.90;1638.40;;;;;;4885004;29;20059;-74
2023/02/16 12:40:12;;;;;;;55.85;34.80;;;409.80;1664.00;;;;;;4895145;29;20372;-74
2023/02/16 12:43:02;;;;;;;50.63;33.30;;;409.90;1638.40;;;;;;4893413;29;20048;-82
2023/02/16 12:45:33;;;;;;;55.47;34.25;;;384.90;1638.40;;;;;;4887815;29;20037;-81
2023/02/16 12:48:33;;;;;;;54.78;35.50;;;384.90;1664.00;;;;;;4878892;29;20045;-83
2023/02/16 12:51:02;;;;;;;54.33;31.98;;;409.60;1689.60;;;;;;4896685;28;20037;-79
2023/02/16 12:54:16;;;;;;;59.88;36.45;;;384.70;1664.00;;;;;;4946905;28;20037;-83
2023/02/16 12:56:46;;;;;;;52.45;33.15;;;409.60;1689.60;;;;;;4876539;29;20034;-83
2023/02/16 12:59:18;;;;;;;53.10;33.70;;;409.90;1638.40;;;;;;4859459;29;20065;-78
2023/02/16 13:01:47;;;;;;;58.15;32.90;;;409.70;1638.40;;;;;;4874587;29;20045;-80
2023/02/16 13:04:25;;;;;;;47.83;31.38;;;409.90;1612.80;;;;;;4841529;29;20030;-78
2023/02/16 13:06:51;;;;;;;52.60;34.10;;;410.00;1587.20;;;;;;4857828;29;20034;-78
2023/02/16 13:09:17;;;;;;;56.55;36.22;;;409.90;1638.40;;;;;;4862305;29;20045;-78
2023/02/16 13:11:56;;;;;;;52.50;35.60;;;409.70;1664.00;;;;;;4859098;29;20029;-78
2023/02/16 13:14:30;;;;;;;52.53;33.78;;;409.70;1664.00;;;;;;4890612;29;20040;-78
2023/02/16 13:17:27;;;;;;;49.13;31.95;;;409.80;1612.80;;;;;;4934104;29;20032;-78
2023/02/16 13:19:52;;;;;;;48.80;31.52;;;409.80;1587.20;;;;;;4934348;29;20036;-78
2023/02/16 13:22:21;;;;;;;47.78;31.65;;;409.60;1587.20;;;;;;4919134;29;20099;-78
2023/02/16 13:25:07;;;;;;;52.72;32.35;;;384.90;1561.60;;;;;;4919869;29;20034;-78
2023/02/16 13:27:55;;;;;;;46.00;30.75;;;384.90;1561.60;;;;;;4938272;28;20031;-77